Time;durP1;ratioP1;P1;durP2;ratioP2;P2;SDS_P1;SDS_P2;PMS_P1;PMS_P2;Temp;Humidity;BMP_temperature;BMP_pressure;BME280_temperature;BME280_humidity;BME280_pressure;Samples;Min_cycle;Max_cycle;Signal;HPM_P1;HPM_P2
2023/05/13 00:00:44;;;;;;;113.20;19.02;;;;;;;;;;4997849;28;20081;-50
2023/05/13 00:03:11;;;;;;;126.00;19.63;;;;;;;;;;4977745;28;20077;-47
2023/05/13 00:05:39;;;;;;;134.25;20.75;;;;;;;;;;4988783;28;20543;-49
2023/05/13 00:08:06;;;;;;;117.50;18.92;;;;;;;;;;4993293;28;20193;-50
2023/05/13 00:10:33;;;;;;;114.93;19.08;;;;;;;;;;4993236;28;20030;-47
2023/05/13 00:13:00;;;;;;;119.30;20.35;;;;;;;;;;4991290;28;20029;-48
2023/05/13 00:15:28;;;;;;;115.88;19.60;;;;;;;;;;4991940;28;20057;-47
2023/05/13 00:17:55;;;;;;;120.65;17.95;;;;;;;;;;4993268;28;20513;-47
2023/05/13 00:20:22;;;;;;;128.90;19.55;;;;;;;;;;4989164;28;20070;-47
2023/05/13 00:22:49;;;;;;;116.63;18.98;;;;;;;;;;4999502;28;20673;-47
2023/05/13 00:25:16;;;;;;;111.35;17.85;;;;;;;;;;4986420;28;20499;-49
2023/05/13 00:27:43;;;;;;;109.82;18.15;;;;;;;;;;4993213;28;20046;-48
2023/05/13 00:30:10;;;;;;;109.97;19.85;;;;;;;;;;4993237;28;20031;-47
2023/05/13 00:32:37;;;;;;;111.28;19.15;;;;;;;;;;4990789;28;20117;-48
2023/05/13 00:35:04;;;;;;;93.25;19.40;;;;;;;;;;4978528;28;20030;-46
2023/05/13 00:37:31;;;;;;;93.43;18.75;;;;;;;;;;4983969;28;20026;-48
2023/05/13 00:39:58;;;;;;;98.90;20.00;;;;;;;;;;4979985;28;20043;-48
2023/05/13 00:42:25;;;;;;;105.10;19.10;;;;;;;;;;4984721;28;20038;-47
2023/05/13 00:44:52;;;;;;;119.80;19.88;;;;;;;;;;4979219;28;20118;-47
2023/05/13 00:47:19;;;;;;;88.00;18.23;;;;;;;;;;4974297;28;20039;-46
2023/05/13 00:49:46;;;;;;;101.13;18.55;;;;;;;;;;4987388;28;20033;-47
2023/05/13 00:52:13;;;;;;;87.13;17.23;;;;;;;;;;4988672;28;20030;-49
2023/05/13 00:54:40;;;;;;;83.30;18.95;;;;;;;;;;4989654;28;20084;-48
2023/05/13 00:57:07;;;;;;;91.57;18.00;;;;;;;;;;4981168;28;20030;-47
2023/05/13 00:59:34;;;;;;;91.80;17.17;;;;;;;;;;4990223;28;20030;-48
2023/05/13 01:02:10;;;;;;;97.80;17.80;;;;;;;;;;4991926;28;20043;-49
2023/05/13 01:04:42;;;;;;;79.35;17.50;;;;;;;;;;4992037;28;20042;-52
2023/05/13 01:07:19;;;;;;;101.05;18.02;;;;;;;;;;4991873;28;20045;-49
2023/05/13 01:09:46;;;;;;;85.03;16.80;;;;;;;;;;4992070;28;20026;-48
2023/05/13 01:12:19;;;;;;;96.50;18.23;;;;;;;;;;4991982;28;20096;-48
2023/05/13 01:14:52;;;;;;;101.97;17.85;;;;;;;;;;4991649;28;20475;-48
2023/05/13 01:17:21;;;;;;;83.65;17.25;;;;;;;;;;4991658;28;20144;-46
2023/05/13 01:19:51;;;;;;;93.10;18.35;;;;;;;;;;4991882;28;20031;-47
2023/05/13 01:22:18;;;;;;;92.25;18.77;;;;;;;;;;4991853;28;20030;-47
2023/05/13 01:24:45;;;;;;;90.80;18.88;;;;;;;;;;4991822;28;20050;-47
2023/05/13 01:27:12;;;;;;;91.63;20.83;;;;;;;;;;4992037;28;20033;-47
2023/05/13 01:29:39;;;;;;;88.35;21.15;;;;;;;;;;4991467;28;20112;-48
2023/05/13 01:32:07;;;;;;;95.55;21.98;;;;;;;;;;4992014;28;20026;-47
2023/05/13 01:34:35;;;;;;;109.18;23.00;;;;;;;;;;4991296;28;20037;-49
2023/05/13 01:37:03;;;;;;;88.00;21.65;;;;;;;;;;4991477;28;20085;-48
2023/05/13 01:39:30;;;;;;;89.95;20.92;;;;;;;;;;4991430;28;20475;-47
2023/05/13 01:41:58;;;;;;;98.47;21.42;;;;;;;;;;4991584;28;20026;-47
2023/05/13 01:44:25;;;;;;;93.70;20.42;;;;;;;;;;4991180;28;20099;-48
2023/05/13 01:46:52;;;;;;;92.15;20.17;;;;;;;;;;4990557;28;20112;-48
2023/05/13 01:49:19;;;;;;;86.90;20.05;;;;;;;;;;4990927;28;20093;-48
2023/05/13 01:51:46;;;;;;;83.80;19.90;;;;;;;;;;4990337;28;20029;-49
2023/05/13 01:54:13;;;;;;;91.45;20.17;;;;;;;;;;4991185;28;20064;-47
2023/05/13 01:56:40;;;;;;;75.43;18.77;;;;;;;;;;4990613;28;20046;-47
2023/05/13 01:59:08;;;;;;;90.88;19.45;;;;;;;;;;4991441;28;20113;-49
2023/05/13 02:01:35;;;;;;;84.95;18.50;;;;;;;;;;4991159;28;20495;-46
2023/05/13 02:04:02;;;;;;;76.13;18.73;;;;;;;;;;4990940;28;20026;-48
2023/05/13 02:06:31;;;;;;;89.38;19.00;;;;;;;;;;4991104;28;20476;-48
2023/05/13 02:08:58;;;;;;;81.15;18.35;;;;;;;;;;4978086;28;20038;-47
2023/05/13 02:11:25;;;;;;;90.22;19.20;;;;;;;;;;4980550;28;20038;-47
2023/05/13 02:13:52;;;;;;;75.85;17.30;;;;;;;;;;4971616;28;20022;-46
2023/05/13 02:16:20;;;;;;;82.25;17.25;;;;;;;;;;4986904;28;20105;-45
2023/05/13 02:18:47;;;;;;;77.00;17.10;;;;;;;;;;4988991;28;20041;-47
2023/05/13 02:21:13;;;;;;;74.60;17.58;;;;;;;;;;4990686;28;20392;-47
2023/05/13 02:23:40;;;;;;;83.45;17.23;;;;;;;;;;4990501;28;20182;-47
2023/05/13 02:26:07;;;;;;;65.75;16.40;;;;;;;;;;4990695;28;20622;-46
2023/05/13 02:28:34;;;;;;;74.85;17.85;;;;;;;;;;4990175;28;20035;-47
2023/05/13 02:31:01;;;;;;;70.95;16.08;;;;;;;;;;4990300;28;20125;-47
2023/05/13 02:33:28;;;;;;;75.13;17.75;;;;;;;;;;4990731;28;20469;-46
2023/05/13 02:35:55;;;;;;;72.45;16.70;;;;;;;;;;4990437;28;20050;-46
2023/05/13 02:38:22;;;;;;;75.50;16.30;;;;;;;;;;4988018;28;20026;-49
2023/05/13 02:40:50;;;;;;;72.88;15.82;;;;;;;;;;4990425;28;20022;-47
2023/05/13 02:43:17;;;;;;;67.32;15.38;;;;;;;;;;4993338;28;20081;-47
2023/05/13 02:45:44;;;;;;;66.35;15.57;;;;;;;;;;4991565;28;20038;-47
2023/05/13 02:48:11;;;;;;;60.70;15.55;;;;;;;;;;4994386;28;20026;-47
2023/05/13 02:50:39;;;;;;;64.32;15.82;;;;;;;;;;4993966;28;20041;-47
2023/05/13 02:53:06;;;;;;;61.53;15.25;;;;;;;;;;4994367;28;20046;-47
2023/05/13 02:55:33;;;;;;;64.07;15.15;;;;;;;;;;4992381;28;20038;-45
2023/05/13 02:58:00;;;;;;;56.55;13.38;;;;;;;;;;4995094;28;20042;-47
2023/05/13 03:00:27;;;;;;;69.45;14.25;;;;;;;;;;4994896;28;20058;-47
2023/05/13 03:02:55;;;;;;;56.10;13.85;;;;;;;;;;4994624;28;20488;-46
2023/05/13 03:05:22;;;;;;;62.70;14.32;;;;;;;;;;4994768;28;20105;-47
2023/05/13 03:07:49;;;;;;;62.90;14.35;;;;;;;;;;4994685;28;20026;-46
2023/05/13 03:10:16;;;;;;;51.90;13.80;;;;;;;;;;4994825;28;20068;-50
2023/05/13 03:12:43;;;;;;;53.50;13.48;;;;;;;;;;4994631;28;20448;-47
2023/05/13 03:15:10;;;;;;;58.72;13.77;;;;;;;;;;4994185;28;20062;-46
2023/05/13 03:17:37;;;;;;;55.25;13.15;;;;;;;;;;4994487;28;20019;-47
2023/05/13 03:20:04;;;;;;;50.53;12.65;;;;;;;;;;4994635;28;20030;-47
2023/05/13 03:22:31;;;;;;;52.53;13.25;;;;;;;;;;4994456;28;20034;-47
2023/05/13 03:24:58;;;;;;;49.95;12.90;;;;;;;;;;4993404;28;20400;-46
2023/05/13 03:27:25;;;;;;;55.40;13.23;;;;;;;;;;4994704;28;20088;-46
2023/05/13 03:29:52;;;;;;;46.28;12.55;;;;;;;;;;4994917;28;20111;-46
2023/05/13 03:32:19;;;;;;;49.50;12.13;;;;;;;;;;4994963;28;20041;-46
2023/05/13 03:34:46;;;;;;;45.97;13.15;;;;;;;;;;4994853;28;20484;-47
2023/05/13 03:37:13;;;;;;;50.53;13.07;;;;;;;;;;4994509;28;20034;-47
2023/05/13 03:39:40;;;;;;;46.40;12.25;;;;;;;;;;4994786;28;20073;-45
2023/05/13 03:42:07;;;;;;;44.08;12.05;;;;;;;;;;4994764;28;20515;-46
2023/05/13 03:44:34;;;;;;;49.40;12.82;;;;;;;;;;4994712;28;20026;-47
2023/05/13 03:47:01;;;;;;;46.80;11.98;;;;;;;;;;4994457;28;20050;-46
2023/05/13 03:49:28;;;;;;;41.80;11.70;;;;;;;;;;4994354;28;20480;-46
2023/05/13 03:51:55;;;;;;;48.08;12.40;;;;;;;;;;4994561;28;20113;-47
2023/05/13 03:54:22;;;;;;;44.78;12.52;;;;;;;;;;4994423;28;20026;-45
2023/05/13 03:56:49;;;;;;;49.22;11.85;;;;;;;;;;4994298;28;20027;-45
2023/05/13 03:59:16;;;;;;;42.67;11.63;;;;;;;;;;4994316;28;20377;-47
2023/05/13 04:01:43;;;;;;;41.95;11.00;;;;;;;;;;4994436;28;20022;-45
2023/05/13 04:04:11;;;;;;;39.20;11.35;;;;;;;;;;4994193;28;20026;-46
2023/05/13 04:06:38;;;;;;;36.53;10.65;;;;;;;;;;4994002;28;20037;-46
2023/05/13 04:09:05;;;;;;;39.38;11.38;;;;;;;;;;4994138;28;20094;-46
2023/05/13 04:11:32;;;;;;;37.67;10.48;;;;;;;;;;4994053;28;20030;-46
2023/05/13 04:13:59;;;;;;;39.58;10.80;;;;;;;;;;4994071;28;20374;-46
2023/05/13 04:16:26;;;;;;;41.58;10.75;;;;;;;;;;4993804;28;20396;-45
2023/05/13 04:18:53;;;;;;;37.95;11.13;;;;;;;;;;4993858;28;20102;-46
2023/05/13 04:21:20;;;;;;;36.05;9.98;;;;;;;;;;4993982;28;20035;-45
2023/05/13 04:23:47;;;;;;;37.90;10.50;;;;;;;;;;4993871;28;20023;-46
2023/05/13 04:26:14;;;;;;;40.75;10.82;;;;;;;;;;4993806;28;20030;-46
2023/05/13 04:28:41;;;;;;;44.38;10.13;;;;;;;;;;4993620;28;20022;-45
2023/05/13 04:31:08;;;;;;;34.15;10.23;;;;;;;;;;4993709;28;20032;-47
2023/05/13 04:33:35;;;;;;;39.47;10.00;;;;;;;;;;4993643;28;20390;-45
2023/05/13 04:36:02;;;;;;;36.65;8.98;;;;;;;;;;4993522;28;20031;-46
2023/05/13 04:38:31;;;;;;;39.35;10.65;;;;;;;;;;4993503;28;20069;-46
2023/05/13 04:40:57;;;;;;;35.63;10.30;;;;;;;;;;4993479;28;20100;-46
2023/05/13 04:43:24;;;;;;;39.20;9.85;;;;;;;;;;4993478;28;20065;-46
2023/05/13 04:45:51;;;;;;;36.53;9.05;;;;;;;;;;4993169;28;20484;-46
2023/05/13 04:48:18;;;;;;;43.08;10.73;;;;;;;;;;4993262;28;20031;-46
2023/05/13 04:50:48;;;;;;;30.35;8.48;;;;;;;;;;4993611;28;20449;-46
2023/05/13 04:53:15;;;;;;;28.63;8.98;;;;;;;;;;4993468;28;20022;-46
2023/05/13 04:55:42;;;;;;;34.45;8.93;;;;;;;;;;4993119;28;20030;-46
2023/05/13 04:58:09;;;;;;;31.27;8.85;;;;;;;;;;4993230;28;20027;-46
2023/05/13 05:00:36;;;;;;;24.40;8.68;;;;;;;;;;4993004;28;20026;-46
2023/05/13 05:03:03;;;;;;;25.88;8.20;;;;;;;;;;4993230;28;20023;-46
2023/05/13 05:05:30;;;;;;;28.33;8.23;;;;;;;;;;4992579;28;20030;-46
2023/05/13 05:07:57;;;;;;;29.85;8.55;;;;;;;;;;4993078;28;20030;-46
2023/05/13 05:10:24;;;;;;;36.38;8.45;;;;;;;;;;4992966;28;20404;-47
2023/05/13 05:12:51;;;;;;;31.40;8.35;;;;;;;;;;4992975;28;20034;-47
2023/05/13 05:15:18;;;;;;;35.85;8.73;;;;;;;;;;4992712;28;20091;-45
2023/05/13 05:17:45;;;;;;;29.10;8.88;;;;;;;;;;4992957;28;20023;-46
2023/05/13 05:20:13;;;;;;;32.08;8.70;;;;;;;;;;4992822;28;20034;-46
2023/05/13 05:22:40;;;;;;;32.47;8.77;;;;;;;;;;4992864;28;20034;-46
2023/05/13 05:25:08;;;;;;;30.33;8.88;;;;;;;;;;4992640;28;20042;-46
2023/05/13 05:27:35;;;;;;;33.00;8.82;;;;;;;;;;4992945;28;20034;-46
2023/05/13 05:30:02;;;;;;;34.17;8.75;;;;;;;;;;4992630;28;20445;-45
2023/05/13 05:32:29;;;;;;;36.15;8.95;;;;;;;;;;4992723;28;20515;-46
2023/05/13 05:34:56;;;;;;;31.40;8.00;;;;;;;;;;4992648;28;20567;-46
2023/05/13 05:37:23;;;;;;;27.45;8.50;;;;;;;;;;4992285;28;20084;-45
2023/05/13 05:39:50;;;;;;;32.60;8.55;;;;;;;;;;4992599;28;20034;-46
2023/05/13 05:42:17;;;;;;;28.63;8.40;;;;;;;;;;4991264;28;20038;-46
2023/05/13 05:44:44;;;;;;;38.63;9.15;;;;;;;;;;4992503;28;20504;-46
2023/05/13 05:47:11;;;;;;;37.42;8.55;;;;;;;;;;4992114;28;20042;-45
2023/05/13 05:49:38;;;;;;;32.65;8.15;;;;;;;;;;4992357;28;20427;-47
2023/05/13 05:52:05;;;;;;;34.55;8.10;;;;;;;;;;4992396;28;20034;-47
2023/05/13 05:54:32;;;;;;;33.05;9.27;;;;;;;;;;4992177;28;20037;-47
2023/05/13 05:56:59;;;;;;;33.22;9.07;;;;;;;;;;4992212;28;20092;-47
2023/05/13 05:59:26;;;;;;;31.92;7.78;;;;;;;;;;4992181;28;20034;-47
2023/05/13 06:01:53;;;;;;;35.35;9.02;;;;;;;;;;4991162;28;20101;-46
2023/05/13 06:04:20;;;;;;;33.45;7.60;;;;;;;;;;4992085;28;20570;-46
2023/05/13 06:06:47;;;;;;;29.30;8.10;;;;;;;;;;4992102;28;20037;-46
2023/05/13 06:09:14;;;;;;;28.05;8.00;;;;;;;;;;4992035;28;20027;-45
2023/05/13 06:11:41;;;;;;;33.95;8.38;;;;;;;;;;4992164;28;20022;-46
2023/05/13 06:14:08;;;;;;;31.67;8.35;;;;;;;;;;4992145;28;20026;-46
2023/05/13 06:16:35;;;;;;;33.20;8.05;;;;;;;;;;4991954;28;20041;-45
2023/05/13 06:19:02;;;;;;;29.92;8.70;;;;;;;;;;4996058;28;20076;-46
2023/05/13 06:21:30;;;;;;;29.20;7.75;;;;;;;;;;4996267;28;20054;-45
2023/05/13 06:23:57;;;;;;;30.42;8.18;;;;;;;;;;4996046;28;20038;-47
2023/05/13 06:26:24;;;;;;;28.88;8.35;;;;;;;;;;4995991;28;20062;-47
2023/05/13 06:28:51;;;;;;;36.20;8.88;;;;;;;;;;4995981;28;20440;-46
2023/05/13 06:31:18;;;;;;;36.03;8.05;;;;;;;;;;4995986;28;20030;-46
2023/05/13 06:33:45;;;;;;;27.23;7.63;;;;;;;;;;4995758;28;20588;-46
2023/05/13 06:36:12;;;;;;;28.55;7.78;;;;;;;;;;4995694;28;20503;-46
2023/05/13 06:38:39;;;;;;;29.35;7.38;;;;;;;;;;4995868;28;20381;-46
2023/05/13 06:41:06;;;;;;;35.42;8.70;;;;;;;;;;4995775;28;20060;-47
2023/05/13 06:43:33;;;;;;;27.55;7.82;;;;;;;;;;4995615;28;20023;-46
2023/05/13 06:46:00;;;;;;;27.83;7.70;;;;;;;;;;4995470;28;20149;-46
2023/05/13 06:48:27;;;;;;;29.83;7.82;;;;;;;;;;4995686;28;20053;-47
2023/05/13 06:50:54;;;;;;;27.38;7.68;;;;;;;;;;4995595;28;20037;-46
2023/05/13 06:53:21;;;;;;;25.45;6.97;;;;;;;;;;4995445;28;20032;-47
2023/05/13 06:55:48;;;;;;;25.52;7.32;;;;;;;;;;4995181;28;20073;-47
2023/05/13 06:58:15;;;;;;;25.10;6.85;;;;;;;;;;4995604;28;20022;-47
2023/05/13 07:00:42;;;;;;;34.67;8.88;;;;;;;;;;4995373;28;20101;-47
2023/05/13 07:03:09;;;;;;;27.38;7.82;;;;;;;;;;4995479;28;20081;-47
2023/05/13 07:05:37;;;;;;;31.83;7.75;;;;;;;;;;4995027;28;20034;-46
2023/05/13 07:08:07;;;;;;;30.08;7.88;;;;;;;;;;4995257;28;20034;-46
2023/05/13 07:10:34;;;;;;;28.02;7.22;;;;;;;;;;4995265;28;20034;-46
2023/05/13 07:13:02;;;;;;;30.40;8.23;;;;;;;;;;4995203;28;20026;-46
2023/05/13 07:15:29;;;;;;;30.45;7.47;;;;;;;;;;4994970;28;20416;-46
2023/05/13 07:17:56;;;;;;;31.85;8.27;;;;;;;;;;4995158;28;20037;-46
2023/05/13 07:20:25;;;;;;;27.35;7.85;;;;;;;;;;4995066;28;20385;-46
2023/05/13 07:22:52;;;;;;;28.30;7.38;;;;;;;;;;4995040;28;20038;-45
2023/05/13 07:25:19;;;;;;;23.58;6.90;;;;;;;;;;4994938;28;20042;-46
2023/05/13 07:27:47;;;;;;;23.90;7.13;;;;;;;;;;4994600;28;20033;-46
2023/05/13 07:30:14;;;;;;;29.05;7.20;;;;;;;;;;4994854;28;20039;-46
2023/05/13 07:32:41;;;;;;;26.58;6.88;;;;;;;;;;4994848;28;20022;-46
2023/05/13 07:35:09;;;;;;;26.92;7.13;;;;;;;;;;4994793;28;20058;-46
2023/05/13 07:37:35;;;;;;;27.88;8.02;;;;;;;;;;4994853;28;20088;-46
2023/05/13 07:40:03;;;;;;;27.88;7.43;;;;;;;;;;4994601;28;20034;-46
2023/05/13 07:42:30;;;;;;;24.92;7.22;;;;;;;;;;4994797;28;20038;-46
2023/05/13 07:44:57;;;;;;;27.48;7.70;;;;;;;;;;4994630;28;20030;-46
2023/05/13 07:47:24;;;;;;;19.40;6.05;;;;;;;;;;4994481;28;20532;-46
2023/05/13 07:49:51;;;;;;;24.83;7.00;;;;;;;;;;4994575;28;20031;-46
2023/05/13 07:52:18;;;;;;;24.17;6.55;;;;;;;;;;4994392;28;20041;-46
2023/05/13 07:54:45;;;;;;;19.98;6.53;;;;;;;;;;4994433;28;20034;-46
2023/05/13 07:57:12;;;;;;;33.90;6.97;;;;;;;;;;4994379;28;20034;-46
2023/05/13 07:59:39;;;;;;;26.27;6.85;;;;;;;;;;4994361;28;20022;-47
2023/05/13 08:02:07;;;;;;;22.85;7.25;;;;;;;;;;4994342;28;20018;-46
2023/05/13 08:04:34;;;;;;;19.08;6.28;;;;;;;;;;4994187;28;20058;-46
2023/05/13 08:07:01;;;;;;;20.60;6.22;;;;;;;;;;4994174;28;20080;-47
2023/05/13 08:09:28;;;;;;;20.48;6.55;;;;;;;;;;4994224;28;20109;-46
2023/05/13 08:11:55;;;;;;;22.83;6.20;;;;;;;;;;4994141;28;20101;-46
2023/05/13 08:14:22;;;;;;;18.95;6.35;;;;;;;;;;4994122;28;20030;-46
2023/05/13 08:16:49;;;;;;;26.63;6.32;;;;;;;;;;4993934;28;20484;-50
2023/05/13 08:19:17;;;;;;;20.65;6.63;;;;;;;;;;4993998;28;20019;-45
2023/05/13 08:21:44;;;;;;;20.23;6.00;;;;;;;;;;4993912;28;20028;-46
2023/05/13 08:24:11;;;;;;;17.33;5.68;;;;;;;;;;4993810;28;20022;-46
2023/05/13 08:26:38;;;;;;;24.63;6.97;;;;;;;;;;4993750;28;20057;-46
2023/05/13 08:29:05;;;;;;;20.75;6.32;;;;;;;;;;4993906;28;20026;-46
2023/05/13 08:31:32;;;;;;;18.35;6.25;;;;;;;;;;4993879;28;20384;-46
2023/05/13 08:33:59;;;;;;;23.55;6.03;;;;;;;;;;4993645;28;20495;-46
2023/05/13 08:36:26;;;;;;;23.25;6.32;;;;;;;;;;4993591;28;20571;-46
2023/05/13 08:38:53;;;;;;;21.45;6.30;;;;;;;;;;4993556;28;20026;-47
2023/05/13 08:41:21;;;;;;;20.90;5.72;;;;;;;;;;4992946;28;20033;-46
2023/05/13 08:43:49;;;;;;;19.38;6.07;;;;;;;;;;4993472;28;20026;-46
2023/05/13 08:46:17;;;;;;;26.33;6.57;;;;;;;;;;4993293;28;20054;-45
2023/05/13 08:48:44;;;;;;;15.38;4.97;;;;;;;;;;4993470;28;20442;-46
2023/05/13 08:51:12;;;;;;;19.00;5.47;;;;;;;;;;4993225;28;20137;-46
2023/05/13 08:53:39;;;;;;;20.30;6.15;;;;;;;;;;4993480;28;20041;-46
2023/05/13 08:56:08;;;;;;;17.88;5.70;;;;;;;;;;4992957;28;20444;-46
2023/05/13 08:58:35;;;;;;;23.73;6.47;;;;;;;;;;4993264;28;20026;-47
2023/05/13 09:01:03;;;;;;;19.85;5.72;;;;;;;;;;4993309;28;20028;-46
2023/05/13 09:03:30;;;;;;;19.20;5.70;;;;;;;;;;4993025;28;20100;-46
2023/05/13 09:06:00;;;;;;;19.88;5.88;;;;;;;;;;4993129;28;20360;-45
2023/05/13 09:08:27;;;;;;;22.80;5.60;;;;;;;;;;4993135;28;20022;-47
2023/05/13 09:10:54;;;;;;;19.00;5.75;;;;;;;;;;4993121;28;20122;-46
2023/05/13 09:13:21;;;;;;;18.75;5.55;;;;;;;;;;4992888;28;20076;-46
2023/05/13 09:15:50;;;;;;;17.65;5.63;;;;;;;;;;4992831;28;20485;-46
2023/05/13 09:18:18;;;;;;;18.70;5.55;;;;;;;;;;4992968;28;20033;-46
2023/05/13 09:20:45;;;;;;;20.45;5.07;;;;;;;;;;4992827;28;20022;-46
2023/05/13 09:23:14;;;;;;;22.58;5.47;;;;;;;;;;4992632;28;20109;-47
2023/05/13 09:25:43;;;;;;;16.13;5.45;;;;;;;;;;4992480;28;20025;-47
2023/05/13 09:28:14;;;;;;;15.95;5.45;;;;;;;;;;4992703;28;20026;-47
2023/05/13 09:30:44;;;;;;;17.77;5.80;;;;;;;;;;4992612;28;20050;-47
2023/05/13 09:33:12;;;;;;;17.48;5.05;;;;;;;;;;4992769;28;20032;-46
2023/05/13 09:35:42;;;;;;;16.77;5.30;;;;;;;;;;4992306;28;20022;-47
2023/05/13 09:38:21;;;;;;;15.18;4.55;;;;;;;;;;4992550;28;20473;-47
2023/05/13 09:40:55;;;;;;;15.73;4.45;;;;;;;;;;4992710;28;20524;-47
2023/05/13 09:43:23;;;;;;;17.15;5.55;;;;;;;;;;4992608;28;20038;-47
2023/05/13 09:45:54;;;;;;;14.65;4.85;;;;;;;;;;4992304;28;20030;-47
2023/05/13 09:48:22;;;;;;;17.63;4.97;;;;;;;;;;4992377;28;20391;-46
2023/05/13 09:50:51;;;;;;;16.08;5.00;;;;;;;;;;4992125;28;20382;-48
2023/05/13 09:53:21;;;;;;;12.52;4.38;;;;;;;;;;4992571;28;20037;-47
2023/05/13 09:55:48;;;;;;;14.90;5.10;;;;;;;;;;4992217;28;20034;-47
2023/05/13 09:58:15;;;;;;;16.15;4.38;;;;;;;;;;4992175;28;20022;-47
2023/05/13 10:00:43;;;;;;;16.33;4.93;;;;;;;;;;4992289;28;20026;-47
2023/05/13 10:03:10;;;;;;;18.48;5.15;;;;;;;;;;4992242;28;20543;-46
2023/05/13 10:05:38;;;;;;;13.82;4.55;;;;;;;;;;4992207;28;20034;-47
2023/05/13 10:08:07;;;;;;;13.07;4.93;;;;;;;;;;4992177;28;20030;-47
2023/05/13 10:10:35;;;;;;;13.38;4.07;;;;;;;;;;4992117;28;20026;-46
2023/05/13 10:13:12;;;;;;;13.50;4.72;;;;;;;;;;4992159;28;20030;-47
2023/05/13 10:15:51;;;;;;;14.35;4.72;;;;;;;;;;4991995;28;20052;-46
2023/05/13 10:18:19;;;;;;;14.25;4.35;;;;;;;;;;4992071;28;20564;-47
2023/05/13 10:20:51;;;;;;;15.05;4.78;;;;;;;;;;4992109;28;20040;-46
2023/05/13 10:23:19;;;;;;;12.35;4.43;;;;;;;;;;4991833;28;20575;-47
2023/05/13 10:25:50;;;;;;;12.18;4.53;;;;;;;;;;4991941;28;20027;-47
2023/05/13 10:28:17;;;;;;;13.88;4.43;;;;;;;;;;4992106;28;20018;-47
2023/05/13 10:30:45;;;;;;;12.18;4.30;;;;;;;;;;4992038;28;20436;-47
2023/05/13 10:33:12;;;;;;;12.45;4.43;;;;;;;;;;4991804;28;20090;-47
2023/05/13 10:35:42;;;;;;;13.18;4.50;;;;;;;;;;4991801;28;20081;-47
2023/05/13 10:38:26;;;;;;;11.00;4.10;;;;;;;;;;4974354;28;20030;-47
2023/05/13 10:40:53;;;;;;;12.82;4.13;;;;;;;;;;4991979;28;20033;-47
2023/05/13 10:43:25;;;;;;;13.85;4.38;;;;;;;;;;4991888;28;20034;-47
2023/05/13 10:45:56;;;;;;;12.10;4.03;;;;;;;;;;4991365;28;20037;-46
2023/05/13 10:48:23;;;;;;;10.52;4.13;;;;;;;;;;4991743;28;20065;-47
2023/05/13 10:50:57;;;;;;;13.60;3.97;;;;;;;;;;4991883;28;20423;-47
2023/05/13 10:53:31;;;;;;;10.75;3.92;;;;;;;;;;4991848;28;20487;-47
2023/05/13 10:55:59;;;;;;;13.23;4.05;;;;;;;;;;4991611;28;20046;-48
2023/05/13 10:58:30;;;;;;;11.85;3.80;;;;;;;;;;4991806;28;20027;-47
2023/05/13 11:01:17;;;;;;;8.40;3.80;;;;;;;;;;4991797;28;20447;-47
2023/05/13 11:03:54;;;;;;;18.77;4.28;;;;;;;;;;4993338;28;20101;-47
2023/05/13 11:06:22;;;;;;;14.93;4.35;;;;;;;;;;4995429;28;20058;-47
2023/05/13 11:08:50;;;;;;;9.48;3.67;;;;;;;;;;4994938;28;20034;-47
2023/05/13 11:11:28;;;;;;;14.55;4.43;;;;;;;;;;4995260;28;20539;-48
2023/05/13 11:13:55;;;;;;;14.93;3.88;;;;;;;;;;4993793;28;20389;-47
2023/05/13 11:16:23;;;;;;;10.50;3.75;;;;;;;;;;4994373;28;20459;-47
2023/05/13 11:18:51;;;;;;;14.13;4.07;;;;;;;;;;4994318;28;20108;-46
2023/05/13 11:21:28;;;;;;;17.00;4.15;;;;;;;;;;4995056;28;20030;-47
2023/05/13 11:23:58;;;;;;;14.50;4.03;;;;;;;;;;4994543;28;20037;-47
2023/05/13 11:26:25;;;;;;;18.42;4.38;;;;;;;;;;4993940;28;20026;-47
2023/05/13 11:29:07;;;;;;;13.98;3.80;;;;;;;;;;4994421;28;20031;-47
2023/05/13 11:31:46;;;;;;;14.43;4.53;;;;;;;;;;4994363;28;20038;-48
2023/05/13 11:34:17;;;;;;;17.10;3.67;;;;;;;;;;4994388;28;20086;-47
2023/05/13 11:37:07;;;;;;;16.08;3.95;;;;;;;;;;4992925;28;20034;-47
2023/05/13 11:39:35;;;;;;;17.08;4.50;;;;;;;;;;4985199;28;20048;-48
2023/05/13 11:42:02;;;;;;;17.80;3.95;;;;;;;;;;4993412;28;20051;-51
2023/05/13 11:44:29;;;;;;;15.88;4.22;;;;;;;;;;4993416;28;20031;-48
2023/05/13 11:46:59;;;;;;;16.45;3.72;;;;;;;;;;4993198;28;20042;-47
2023/05/13 11:49:42;;;;;;;16.98;3.70;;;;;;;;;;4993374;28;20030;-47
2023/05/13 11:52:16;;;;;;;14.60;3.83;;;;;;;;;;4991910;28;20057;-47
2023/05/13 11:54:48;;;;;;;17.77;4.47;;;;;;;;;;4990792;28;20117;-47
2023/05/13 11:57:24;;;;;;;16.70;3.85;;;;;;;;;;4991573;28;20493;-47
2023/05/13 11:59:59;;;;;;;17.25;3.85;;;;;;;;;;4992627;28;20030;-46
2023/05/13 12:02:29;;;;;;;16.73;3.83;;;;;;;;;;4994321;28;20432;-47
2023/05/13 12:05:00;;;;;;;15.95;4.65;;;;;;;;;;4993925;28;20036;-48
2023/05/13 12:07:27;;;;;;;25.45;4.45;;;;;;;;;;4994292;28;20366;-47
2023/05/13 12:09:56;;;;;;;24.88;4.43;;;;;;;;;;4994337;28;20028;-49
2023/05/13 12:12:23;;;;;;;22.65;4.68;;;;;;;;;;4993864;28;20169;-48
2023/05/13 12:14:51;;;;;;;17.10;3.67;;;;;;;;;;4992832;28;20030;-45
2023/05/13 12:17:19;;;;;;;25.25;4.30;;;;;;;;;;4994069;28;20125;-46
2023/05/13 12:20:05;;;;;;;17.90;3.50;;;;;;;;;;4993789;28;20031;-44
2023/05/13 12:22:32;;;;;;;24.45;4.40;;;;;;;;;;4993029;28;20392;-46
2023/05/13 12:25:01;;;;;;;32.15;4.40;;;;;;;;;;4988755;28;20034;-54
2023/05/13 12:27:28;;;;;;;20.52;4.18;;;;;;;;;;4993518;28;20116;-54
2023/05/13 12:29:56;;;;;;;15.32;3.58;;;;;;;;;;4993377;28;20420;-51
2023/05/13 12:32:24;;;;;;;23.40;4.00;;;;;;;;;;4975867;28;20029;-48
2023/05/13 12:34:51;;;;;;;12.52;3.50;;;;;;;;;;4992159;28;20022;-52
2023/05/13 12:37:18;;;;;;;15.65;3.67;;;;;;;;;;4991914;28;20085;-49
2023/05/13 12:39:45;;;;;;;14.88;3.72;;;;;;;;;;4992867;28;20018;-49
2023/05/13 12:42:17;;;;;;;14.35;3.42;;;;;;;;;;4993017;28;20015;-50
2023/05/13 12:44:47;;;;;;;28.63;5.13;;;;;;;;;;4990144;28;20026;-53
2023/05/13 12:47:18;;;;;;;17.63;3.42;;;;;;;;;;4990275;28;20058;-56
2023/05/13 12:49:55;;;;;;;15.15;3.72;;;;;;;;;;4990238;28;20535;-54
2023/05/13 12:52:22;;;;;;;28.98;4.85;;;;;;;;;;4992854;28;20026;-56
2023/05/13 12:54:49;;;;;;;14.75;3.50;;;;;;;;;;4992009;28;20030;-52
2023/05/13 12:57:17;;;;;;;11.38;3.10;;;;;;;;;;4991826;28;20030;-55
2023/05/13 12:59:44;;;;;;;16.65;3.38;;;;;;;;;;4971691;28;20044;-55
2023/05/13 13:02:11;;;;;;;20.95;3.58;;;;;;;;;;4992866;28;20040;-56
2023/05/13 13:04:38;;;;;;;13.30;3.40;;;;;;;;;;4992159;28;20124;-56
2023/05/13 13:07:10;;;;;;;20.15;3.72;;;;;;;;;;4990584;28;20034;-57
2023/05/13 13:09:37;;;;;;;14.45;3.10;;;;;;;;;;4992120;28;20101;-51
2023/05/13 13:12:04;;;;;;;18.40;3.08;;;;;;;;;;4992562;28;20039;-56
2023/05/13 13:14:31;;;;;;;25.83;3.80;;;;;;;;;;4992190;28;20514;-48
2023/05/13 13:16:58;;;;;;;20.55;3.38;;;;;;;;;;4991839;28;20521;-49
2023/05/13 13:19:25;;;;;;;18.73;3.28;;;;;;;;;;4990823;28;20049;-50
2023/05/13 13:21:52;;;;;;;13.70;3.58;;;;;;;;;;4991850;28;20030;-52
2023/05/13 13:24:19;;;;;;;28.33;3.55;;;;;;;;;;4992627;28;20031;-49
2023/05/13 13:26:48;;;;;;;24.52;3.33;;;;;;;;;;4991177;28;20034;-52
2023/05/13 13:29:15;;;;;;;19.33;3.63;;;;;;;;;;4990023;28;20551;-51
2023/05/13 13:31:42;;;;;;;17.52;3.28;;;;;;;;;;4991890;28;20022;-52
2023/05/13 13:34:10;;;;;;;15.80;3.63;;;;;;;;;;4992036;28;20026;-50
2023/05/13 13:36:37;;;;;;;17.58;4.00;;;;;;;;;;4991315;28;20048;-51
2023/05/13 13:39:04;;;;;;;17.88;3.22;;;;;;;;;;4990052;28;20966;-50
2023/05/13 13:41:31;;;;;;;18.77;3.35;;;;;;;;;;4987412;28;20041;-51
2023/05/13 13:43:58;;;;;;;17.73;3.33;;;;;;;;;;4991447;28;20033;-51
2023/05/13 13:46:25;;;;;;;17.10;3.25;;;;;;;;;;4991792;28;20042;-51
2023/05/13 13:48:52;;;;;;;14.82;3.40;;;;;;;;;;4989282;28;20027;-52
2023/05/13 13:51:19;;;;;;;22.85;3.47;;;;;;;;;;4991904;28;20392;-53
2023/05/13 13:53:46;;;;;;;19.20;2.72;;;;;;;;;;4991947;28;20571;-51
2023/05/13 13:56:13;;;;;;;12.27;2.80;;;;;;;;;;4989246;28;20058;-49
2023/05/13 13:58:40;;;;;;;24.42;3.42;;;;;;;;;;4991854;28;20034;-49
2023/05/13 14:01:07;;;;;;;20.05;3.25;;;;;;;;;;4991773;28;20030;-49
2023/05/13 14:03:34;;;;;;;16.85;3.35;;;;;;;;;;4991851;28;20014;-52
2023/05/13 14:06:01;;;;;;;13.90;3.00;;;;;;;;;;4991484;28;20034;-54
2023/05/13 14:08:28;;;;;;;16.58;3.38;;;;;;;;;;4991568;28;20030;-48
2023/05/13 14:10:56;;;;;;;12.57;3.00;;;;;;;;;;4991760;28;20031;-50
2023/05/13 14:13:23;;;;;;;13.80;3.47;;;;;;;;;;4991568;28;20045;-51
2023/05/13 14:15:50;;;;;;;16.23;3.40;;;;;;;;;;4991383;28;20030;-52
2023/05/13 14:18:17;;;;;;;19.67;3.20;;;;;;;;;;4991636;28;20108;-49
2023/05/13 14:20:46;;;;;;;19.35;2.97;;;;;;;;;;4991627;28;20109;-49
2023/05/13 14:23:13;;;;;;;13.80;3.50;;;;;;;;;;4989013;28;20109;-51
2023/05/13 14:25:40;;;;;;;18.23;2.85;;;;;;;;;;4991580;28;20026;-50
2023/05/13 14:28:07;;;;;;;15.07;3.03;;;;;;;;;;4991497;28;20121;-53
2023/05/13 14:30:34;;;;;;;17.65;3.10;;;;;;;;;;4991442;28;20085;-51